Page, Arizona
Current Conditions -  °F | °C
As of 6:53 PM on Monday 24 Nov 2014 (Local Time) from KBCE Reporting Station
Clear Clear  
Wind Chill:   Ceiling: Unl
Heat Index: 20°   Visibility: 10mi
Dew Point:   Wind: 10mph
Humidity: 57%   Direction: 340°NNW
Pressure: 30.4"   Gusts: NA
Location:  36.92°N, 111.46°W
Report Text: KBCE 250153Z AUTO 34009KT 10SM CLR M07/M14 A3040 RMK AO2 SLP337 T10671139
Loading
Personal Weather Stations






























Interactive Weather Map New forecast layout! Learn more

10-Day Weather Forecast

Advertisements
Track Severe Weather on mobile